sensor_id;sensor_type;location;lat;lon;timestamp;temperature;humidity
11280;DHT22;5696;50.928;6.960;2023-02-03T06:01:57;9.80;99.90
11280;DHT22;5696;50.928;6.960;2023-02-03T06:04:23;9.90;99.90
11280;DHT22;5696;50.928;6.960;2023-02-03T06:06:49;9.90;99.90
11280;DHT22;5696;50.928;6.960;2023-02-03T06:09:15;9.90;99.90
11280;DHT22;5696;50.928;6.960;2023-02-03T06:11:40;9.80;99.90
11280;DHT22;5696;50.928;6.960;2023-02-03T06:14:07;9.80;99.90
11280;DHT22;5696;50.928;6.960;2023-02-03T06:16:33;9.80;99.90
11280;DHT22;5696;50.928;6.960;2023-02-03T06:18:58;9.80;99.90
11280;DHT22;5696;50.928;6.960;2023-02-03T06:21:25;9.90;99.90
11280;DHT22;5696;50.928;6.960;2023-02-03T06:23:51;9.90;99.90
11280;DHT22;5696;50.928;6.960;2023-02-03T06:26:17;10.00;99.90
11280;DHT22;5696;50.928;6.960;2023-02-03T06:28:42;9.90;99.90
11280;DHT22;5696;50.928;6.960;2023-02-03T06:31:08;9.80;99.90
11280;DHT22;5696;50.928;6.960;2023-02-03T06:33:37;9.80;99.90
11280;DHT22;5696;50.928;6.960;2023-02-03T06:36:03;9.80;99.90
11280;DHT22;5696;50.928;6.960;2023-02-03T06:38:29;9.90;99.90
11280;DHT22;5696;50.928;6.960;2023-02-03T06:40:54;9.90;99.90
11280;DHT22;5696;50.928;6.960;2023-02-03T06:43:20;9.90;99.90
11280;DHT22;5696;50.928;6.960;2023-02-03T06:45:46;9.90;99.90
11280;DHT22;5696;50.928;6.960;2023-02-03T06:48:12;9.90;99.90
11280;DHT22;5696;50.928;6.960;2023-02-03T06:50:38;9.90;99.90
11280;DHT22;5696;50.928;6.960;2023-02-03T06:53:04;9.90;99.90
11280;DHT22;5696;50.928;6.960;2023-02-03T06:55:31;9.90;99.90
11280;DHT22;5696;50.928;6.960;2023-02-03T06:57:56;9.90;99.90
11280;DHT22;5696;50.928;6.960;2023-02-03T07:00:22;9.90;99.90
11280;DHT22;5696;50.928;6.960;2023-02-03T07:02:56;9.90;99.90
11280;DHT22;5696;50.928;6.960;2023-02-03T07:05:22;9.90;99.90
11280;DHT22;5696;50.928;6.960;2023-02-03T07:07:49;9.90;99.90
11280;DHT22;5696;50.928;6.960;2023-02-03T07:10:15;10.00;99.90
11280;DHT22;5696;50.928;6.960;2023-02-03T07:12:41;9.90;99.90
11280;DHT22;5696;50.928;6.960;2023-02-03T07:15:07;9.90;99.90
11280;DHT22;5696;50.928;6.960;2023-02-03T07:17:32;9.90;99.90
11280;DHT22;5696;50.928;6.960;2023-02-03T07:19:59;9.90;99.90
11280;DHT22;5696;50.928;6.960;2023-02-03T07:22:24;9.90;99.90
11280;DHT22;5696;50.928;6.960;2023-02-03T07:24:50;9.90;99.90
11280;DHT22;5696;50.928;6.960;2023-02-03T07:27:15;9.90;99.90
11280;DHT22;5696;50.928;6.960;2023-02-03T07:29:41;9.90;99.90
11280;DHT22;5696;50.928;6.960;2023-02-03T07:32:07;9.90;99.90
11280;DHT22;5696;50.928;6.960;2023-02-03T07:34:32;10.00;99.90
11280;DHT22;5696;50.928;6.960;2023-02-03T07:36:58;10.00;99.90
11280;DHT22;5696;50.928;6.960;2023-02-03T07:39:24;10.00;99.90
11280;DHT22;5696;50.928;6.960;2023-02-03T07:41:50;10.00;99.90
11280;DHT22;5696;50.928;6.960;2023-02-03T07:44:15;10.10;99.90
11280;DHT22;5696;50.928;6.960;2023-02-03T07:46:41;10.10;99.90
11280;DHT22;5696;50.928;6.960;2023-02-03T07:49:12;10.20;99.90
11280;DHT22;5696;50.928;6.960;2023-02-03T07:51:38;10.20;99.90
11280;DHT22;5696;50.928;6.960;2023-02-03T07:54:04;10.10;99.90
11280;DHT22;5696;50.928;6.960;2023-02-03T07:56:30;10.20;99.90
11280;DHT22;5696;50.928;6.960;2023-02-03T07:58:58;10.30;99.90
11280;DHT22;5696;50.928;6.960;2023-02-03T08:01:24;10.30;99.90
11280;DHT22;5696;50.928;6.960;2023-02-03T08:03:50;10.30;99.90
11280;DHT22;5696;50.928;6.960;2023-02-03T08:06:15;10.30;99.90
11280;DHT22;5696;50.928;6.960;2023-02-03T08:08:41;10.30;99.90
11280;DHT22;5696;50.928;6.960;2023-02-03T08:11:07;10.30;99.90
11280;DHT22;5696;50.928;6.960;2023-02-03T08:13:32;10.30;99.90
11280;DHT22;5696;50.928;6.960;2023-02-03T08:15:58;10.30;99.90
11280;DHT22;5696;50.928;6.960;2023-02-03T08:18:24;10.30;99.90
11280;DHT22;5696;50.928;6.960;2023-02-03T08:20:50;10.40;99.90
11280;DHT22;5696;50.928;6.960;2023-02-03T08:23:15;10.40;99.90
11280;DHT22;5696;50.928;6.960;2023-02-03T08:25:41;10.30;99.90
11280;DHT22;5696;50.928;6.960;2023-02-03T08:28:07;10.40;99.90
11280;DHT22;5696;50.928;6.960;2023-02-03T08:30:32;10.40;99.90
11280;DHT22;5696;50.928;6.960;2023-02-03T08:32:58;10.30;99.90
11280;DHT22;5696;50.928;6.960;2023-02-03T08:35:24;10.40;99.90
11280;DHT22;5696;50.928;6.960;2023-02-03T08:37:49;10.40;99.90
11280;DHT22;5696;50.928;6.960;2023-02-03T08:40:16;10.40;99.90
11280;DHT22;5696;50.928;6.960;2023-02-03T08:42:42;10.50;99.90
11280;DHT22;5696;50.928;6.960;2023-02-03T08:45:08;10.50;99.90
11280;DHT22;5696;50.928;6.960;2023-02-03T08:47:33;10.50;99.90
11280;DHT22;5696;50.928;6.960;2023-02-03T08:50:01;10.50;99.90
11280;DHT22;5696;50.928;6.960;2023-02-03T08:52:27;10.60;99.90
11280;DHT22;5696;50.928;6.960;2023-02-03T08:54:53;10.30;99.90
11280;DHT22;5696;50.928;6.960;2023-02-03T08:57:18;10.40;99.90
11280;DHT22;5696;50.928;6.960;2023-02-03T08:59:45;10.20;99.90
11280;DHT22;5696;50.928;6.960;2023-02-03T09:02:15;10.20;99.90
11280;DHT22;5696;50.928;6.960;2023-02-03T09:04:41;10.20;99.90
11280;DHT22;5696;50.928;6.960;2023-02-03T09:07:07;10.40;99.90
11280;DHT22;5696;50.928;6.960;2023-02-03T09:09:32;10.40;99.90
11280;DHT22;5696;50.928;6.960;2023-02-03T09:11:58;10.30;99.90
11280;DHT22;5696;50.928;6.960;2023-02-03T09:14:28;10.40;99.90
11280;DHT22;5696;50.928;6.960;2023-02-03T09:16:54;10.20;99.90
11280;DHT22;5696;50.928;6.960;2023-02-03T09:19:20;10.20;99.90
11280;DHT22;5696;50.928;6.960;2023-02-03T09:21:45;10.30;99.90
11280;DHT22;5696;50.928;6.960;2023-02-03T09:24:16;10.30;99.90
11280;DHT22;5696;50.928;6.960;2023-02-03T09:26:42;10.30;99.90
11280;DHT22;5696;50.928;6.960;2023-02-03T09:29:07;10.40;99.90
11280;DHT22;5696;50.928;6.960;2023-02-03T09:31:33;10.40;99.90
11280;DHT22;5696;50.928;6.960;2023-02-03T09:33:59;10.40;99.90
11280;DHT22;5696;50.928;6.960;2023-02-03T09:36:25;10.30;99.90
11280;DHT22;5696;50.928;6.960;2023-02-03T09:38:51;10.40;99.90
11280;DHT22;5696;50.928;6.960;2023-02-03T09:41:30;10.30;99.90
11280;DHT22;5696;50.928;6.960;2023-02-03T09:46:42;10.30;99.90
11280;DHT22;5696;50.928;6.960;2023-02-03T09:49:21;10.30;99.90
11280;DHT22;5696;50.928;6.960;2023-02-03T09:52:36;10.40;99.90
11280;DHT22;5696;50.928;6.960;2023-02-03T09:55:00;10.50;99.90
11280;DHT22;5696;50.928;6.960;2023-02-03T09:57:29;10.40;99.90
11280;DHT22;5696;50.928;6.960;2023-02-03T09:59:57;10.40;99.90
11280;DHT22;5696;50.928;6.960;2023-02-03T10:05:21;10.60;99.90
11280;DHT22;5696;50.928;6.960;2023-02-03T10:10:38;10.30;99.90
11280;DHT22;5696;50.928;6.960;2023-02-03T10:13:16;10.20;99.90
11280;DHT22;5696;50.928;6.960;2023-02-03T10:16:29;10.30;99.90
11280;DHT22;5696;50.928;6.960;2023-02-03T10:18:38;10.30;99.90
11280;DHT22;5696;50.928;6.960;2023-02-03T10:21:20;10.30;99.90
11280;DHT22;5696;50.928;6.960;2023-02-03T10:23:54;10.30;99.90
11280;DHT22;5696;50.928;6.960;2023-02-03T10:26:27;10.40;99.90
11280;DHT22;5696;50.928;6.960;2023-02-03T10:29:01;10.30;99.90
11280;DHT22;5696;50.928;6.960;2023-02-03T10:31:32;10.30;99.90
11280;DHT22;5696;50.928;6.960;2023-02-03T10:34:13;10.20;99.90
11280;DHT22;5696;50.928;6.960;2023-02-03T10:39:38;10.10;99.90
11280;DHT22;5696;50.928;6.960;2023-02-03T10:42:05;10.20;99.90
11280;DHT22;5696;50.928;6.960;2023-02-03T10:44:38;10.10;99.90
11280;DHT22;5696;50.928;6.960;2023-02-03T10:49:52;10.20;99.90
11280;DHT22;5696;50.928;6.960;2023-02-03T10:52:30;10.10;99.90
11280;DHT22;5696;50.928;6.960;2023-02-03T10:54:57;10.20;99.90
11280;DHT22;5696;50.928;6.960;2023-02-03T10:57:24;10.00;99.90
11280;DHT22;5696;50.928;6.960;2023-02-03T11:00:06;10.10;99.90
11280;DHT22;5696;50.928;6.960;2023-02-03T11:02:33;10.20;99.90
11280;DHT22;5696;50.928;6.960;2023-02-03T11:07:42;10.20;99.90
11280;DHT22;5696;50.928;6.960;2023-02-03T11:10:34;10.20;99.90
11280;DHT22;5696;50.928;6.960;2023-02-03T11:13:24;10.10;99.90
11280;DHT22;5696;50.928;6.960;2023-02-03T11:16:01;10.10;99.90
11280;DHT22;5696;50.928;6.960;2023-02-03T11:18:51;10.10;99.90
11280;DHT22;5696;50.928;6.960;2023-02-03T11:21:18;10.20;99.90
11280;DHT22;5696;50.928;6.960;2023-02-03T11:24:20;10.20;99.90
11280;DHT22;5696;50.928;6.960;2023-02-03T11:29:25;10.10;99.90
11280;DHT22;5696;50.928;6.960;2023-02-03T11:31:55;10.10;99.90
11280;DHT22;5696;50.928;6.960;2023-02-03T11:34:26;10.20;99.90
11280;DHT22;5696;50.928;6.960;2023-02-03T11:36:53;10.40;99.90
11280;DHT22;5696;50.928;6.960;2023-02-03T11:41:52;10.40;99.90
11280;DHT22;5696;50.928;6.960;2023-02-03T11:44:21;10.40;99.90
11280;DHT22;5696;50.928;6.960;2023-02-03T11:47:00;10.40;99.90
11280;DHT22;5696;50.928;6.960;2023-02-03T11:49:59;10.50;99.90
11280;DHT22;5696;50.928;6.960;2023-02-03T12:03:19;10.40;99.90
11280;DHT22;5696;50.928;6.960;2023-02-03T12:06:09;10.30;99.90
11280;DHT22;5696;50.928;6.960;2023-02-03T12:14:38;10.40;99.90
11280;DHT22;5696;50.928;6.960;2023-02-03T12:20:02;10.40;99.90
11280;DHT22;5696;50.928;6.960;2023-02-03T12:22:42;10.50;99.90
11280;DHT22;5696;50.928;6.960;2023-02-03T12:33:52;10.60;99.90
11280;DHT22;5696;50.928;6.960;2023-02-03T12:36:25;10.60;99.90
11280;DHT22;5696;50.928;6.960;2023-02-03T12:38:57;10.70;99.90
11280;DHT22;5696;50.928;6.960;2023-02-03T12:41:36;10.60;99.90
11280;DHT22;5696;50.928;6.960;2023-02-03T12:44:23;10.70;99.90
11280;DHT22;5696;50.928;6.960;2023-02-03T12:56:52;10.90;99.90
11280;DHT22;5696;50.928;6.960;2023-02-03T12:59:22;10.90;99.90
11280;DHT22;5696;50.928;6.960;2023-02-03T13:01:55;10.90;99.90
11280;DHT22;5696;50.928;6.960;2023-02-03T13:04:32;10.90;99.90
11280;DHT22;5696;50.928;6.960;2023-02-03T13:10:03;10.80;99.90
11280;DHT22;5696;50.928;6.960;2023-02-03T13:12:46;10.80;99.90
11280;DHT22;5696;50.928;6.960;2023-02-03T13:17:49;10.90;99.90
11280;DHT22;5696;50.928;6.960;2023-02-03T13:20:22;11.00;99.90
11280;DHT22;5696;50.928;6.960;2023-02-03T13:22:50;10.90;99.90
11280;DHT22;5696;50.928;6.960;2023-02-03T13:25:26;10.80;99.90
11280;DHT22;5696;50.928;6.960;2023-02-03T13:28:26;10.80;99.90
11280;DHT22;5696;50.928;6.960;2023-02-03T13:39:28;10.50;99.90
11280;DHT22;5696;50.928;6.960;2023-02-03T13:44:43;10.40;99.90
11280;DHT22;5696;50.928;6.960;2023-02-03T13:47:18;10.40;99.90
11280;DHT22;5696;50.928;6.960;2023-02-03T13:49:52;10.30;99.90
11280;DHT22;5696;50.928;6.960;2023-02-03T13:52:37;10.30;99.90
11280;DHT22;5696;50.928;6.960;2023-02-03T13:55:06;10.30;99.90
11280;DHT22;5696;50.928;6.960;2023-02-03T13:57:34;10.30;99.90
11280;DHT22;5696;50.928;6.960;2023-02-03T14:00:03;10.30;99.90
11280;DHT22;5696;50.928;6.960;2023-02-03T14:02:39;10.30;99.90
11280;DHT22;5696;50.928;6.960;2023-02-03T14:05:37;10.30;99.90
11280;DHT22;5696;50.928;6.960;2023-02-03T14:07:53;10.20;99.90
11280;DHT22;5696;50.928;6.960;2023-02-03T14:10:21;10.30;99.90
11280;DHT22;5696;50.928;6.960;2023-02-03T14:15:29;10.40;99.90
11280;DHT22;5696;50.928;6.960;2023-02-03T14:20:40;10.50;99.90
11280;DHT22;5696;50.928;6.960;2023-02-03T14:23:11;10.60;99.90
11280;DHT22;5696;50.928;6.960;2023-02-03T14:25:44;10.70;99.90
11280;DHT22;5696;50.928;6.960;2023-02-03T14:28:20;10.80;99.90
11280;DHT22;5696;50.928;6.960;2023-02-03T14:31:25;10.80;99.90
11280;DHT22;5696;50.928;6.960;2023-02-03T14:34:08;10.80;99.90
11280;DHT22;5696;50.928;6.960;2023-02-03T14:36:44;10.80;99.90
11280;DHT22;5696;50.928;6.960;2023-02-03T14:57:59;11.20;99.90
11280;DHT22;5696;50.928;6.960;2023-02-03T15:00:28;11.30;99.90
11280;DHT22;5696;50.928;6.960;2023-02-03T15:05:41;11.40;99.90
11280;DHT22;5696;50.928;6.960;2023-02-03T15:08:38;11.40;99.90
11280;DHT22;5696;50.928;6.960;2023-02-03T15:11:30;11.40;99.90
11280;DHT22;5696;50.928;6.960;2023-02-03T15:16:45;11.30;99.90
11280;DHT22;5696;50.928;6.960;2023-02-03T15:19:17;11.30;99.90
11280;DHT22;5696;50.928;6.960;2023-02-03T15:21:43;11.30;99.90
11280;DHT22;5696;50.928;6.960;2023-02-03T15:24:15;11.20;99.90
11280;DHT22;5696;50.928;6.960;2023-02-03T15:26:49;11.20;99.90
11280;DHT22;5696;50.928;6.960;2023-02-03T15:29:27;11.10;99.90
11280;DHT22;5696;50.928;6.960;2023-02-03T15:32:11;11.10;99.90
11280;DHT22;5696;50.928;6.960;2023-02-03T15:34:42;11.10;99.90
11280;DHT22;5696;50.928;6.960;2023-02-03T15:37:31;11.10;99.90
11280;DHT22;5696;50.928;6.960;2023-02-03T15:40:13;11.20;99.90
11280;DHT22;5696;50.928;6.960;2023-02-03T15:42:54;11.20;99.90
11280;DHT22;5696;50.928;6.960;2023-02-03T15:45:32;11.10;99.90
11280;DHT22;5696;50.928;6.960;2023-02-03T15:48:04;11.00;99.90
11280;DHT22;5696;50.928;6.960;2023-02-03T15:50:35;11.00;99.90
11280;DHT22;5696;50.928;6.960;2023-02-03T15:53:09;11.00;99.90
11280;DHT22;5696;50.928;6.960;2023-02-03T15:55:45;11.00;99.90
11280;DHT22;5696;50.928;6.960;2023-02-03T15:58:22;11.00;99.90
11280;DHT22;5696;50.928;6.960;2023-02-03T16:00:55;11.00;99.90
11280;DHT22;5696;50.928;6.960;2023-02-03T16:03:44;10.90;99.90
11280;DHT22;5696;50.928;6.960;2023-02-03T16:06:31;10.90;99.90
11280;DHT22;5696;50.928;6.960;2023-02-03T16:09:05;10.90;99.90
11280;DHT22;5696;50.928;6.960;2023-02-03T16:11:38;10.90;99.90
11280;DHT22;5696;50.928;6.960;2023-02-03T16:14:10;10.80;99.90
11280;DHT22;5696;50.928;6.960;2023-02-03T16:16:41;10.80;99.90
11280;DHT22;5696;50.928;6.960;2023-02-03T16:19:15;10.80;99.90
11280;DHT22;5696;50.928;6.960;2023-02-03T16:29:50;10.90;99.90
11280;DHT22;5696;50.928;6.960;2023-02-03T16:32:35;10.80;99.90
11280;DHT22;5696;50.928;6.960;2023-02-03T16:35:19;10.70;99.90
11280;DHT22;5696;50.928;6.960;2023-02-03T16:38:14;10.50;99.90
11280;DHT22;5696;50.928;6.960;2023-02-03T16:40:58;10.40;99.90
11280;DHT22;5696;50.928;6.960;2023-02-03T16:43:43;10.30;99.90
11280;DHT22;5696;50.928;6.960;2023-02-03T16:46:27;10.40;99.90
11280;DHT22;5696;50.928;6.960;2023-02-03T16:49:12;10.30;99.90
11280;DHT22;5696;50.928;6.960;2023-02-03T16:51:56;10.20;99.90
11280;DHT22;5696;50.928;6.960;2023-02-03T16:54:22;10.20;99.90
11280;DHT22;5696;50.928;6.960;2023-02-03T16:56:48;10.20;99.90
11280;DHT22;5696;50.928;6.960;2023-02-03T16:59:16;10.10;99.90
11280;DHT22;5696;50.928;6.960;2023-02-03T17:01:42;10.00;99.90
11280;DHT22;5696;50.928;6.960;2023-02-03T17:04:08;10.10;99.90
11280;DHT22;5696;50.928;6.960;2023-02-03T17:06:39;10.00;99.90
11280;DHT22;5696;50.928;6.960;2023-02-03T17:09:06;10.10;99.90
11280;DHT22;5696;50.928;6.960;2023-02-03T17:11:31;10.10;99.90
11280;DHT22;5696;50.928;6.960;2023-02-03T17:13:57;10.10;99.90
11280;DHT22;5696;50.928;6.960;2023-02-03T17:16:24;10.10;99.90
11280;DHT22;5696;50.928;6.960;2023-02-03T17:18:51;10.00;99.90
11280;DHT22;5696;50.928;6.960;2023-02-03T17:21:20;10.00;99.90
11280;DHT22;5696;50.928;6.960;2023-02-03T17:23:47;9.90;99.90
11280;DHT22;5696;50.928;6.960;2023-02-03T17:26:13;9.90;99.90
11280;DHT22;5696;50.928;6.960;2023-02-03T17:28:39;9.90;99.90
11280;DHT22;5696;50.928;6.960;2023-02-03T17:31:07;9.90;99.90
11280;DHT22;5696;50.928;6.960;2023-02-03T17:33:35;10.00;99.90
11280;DHT22;5696;50.928;6.960;2023-02-03T17:36:06;9.90;99.90
11280;DHT22;5696;50.928;6.960;2023-02-03T17:38:41;10.00;99.90
11280;DHT22;5696;50.928;6.960;2023-02-03T17:41:13;9.90;99.90
11280;DHT22;5696;50.928;6.960;2023-02-03T17:43:39;9.90;99.90
11280;DHT22;5696;50.928;6.960;2023-02-03T17:46:06;9.90;99.90
11280;DHT22;5696;50.928;6.960;2023-02-03T17:48:32;9.90;99.90
11280;DHT22;5696;50.928;6.960;2023-02-03T17:51:05;9.90;99.90
11280;DHT22;5696;50.928;6.960;2023-02-03T17:53:31;9.90;99.90
11280;DHT22;5696;50.928;6.960;2023-02-03T17:55:57;9.80;99.90
11280;DHT22;5696;50.928;6.960;2023-02-03T17:58:22;9.90;99.90
11280;DHT22;5696;50.928;6.960;2023-02-03T18:00:48;9.90;99.90
11280;DHT22;5696;50.928;6.960;2023-02-03T18:03:14;9.90;99.90
11280;DHT22;5696;50.928;6.960;2023-02-03T18:05:49;9.90;99.90
11280;DHT22;5696;50.928;6.960;2023-02-03T18:08:15;9.90;99.90
11280;DHT22;5696;50.928;6.960;2023-02-03T18:10:41;9.90;99.90
11280;DHT22;5696;50.928;6.960;2023-02-03T18:13:06;9.80;99.90
11280;DHT22;5696;50.928;6.960;2023-02-03T18:15:32;9.90;99.90
11280;DHT22;5696;50.928;6.960;2023-02-03T18:17:58;10.00;99.90
11280;DHT22;5696;50.928;6.960;2023-02-03T18:20:23;10.00;99.90
11280;DHT22;5696;50.928;6.960;2023-02-03T18:22:49;9.90;99.90
11280;DHT22;5696;50.928;6.960;2023-02-03T18:25:14;9.90;99.90
11280;DHT22;5696;50.928;6.960;2023-02-03T18:27:42;9.90;99.90
11280;DHT22;5696;50.928;6.960;2023-02-03T18:30:08;9.90;99.90
11280;DHT22;5696;50.928;6.960;2023-02-03T18:32:36;9.90;99.90
11280;DHT22;5696;50.928;6.960;2023-02-03T18:35:02;9.90;99.90
11280;DHT22;5696;50.928;6.960;2023-02-03T18:37:31;10.00;99.90
11280;DHT22;5696;50.928;6.960;2023-02-03T18:39:57;10.00;99.90
11280;DHT22;5696;50.928;6.960;2023-02-03T18:42:22;10.00;99.90
11280;DHT22;5696;50.928;6.960;2023-02-03T18:44:48;10.00;99.90
11280;DHT22;5696;50.928;6.960;2023-02-03T18:47:14;9.90;99.90
11280;DHT22;5696;50.928;6.960;2023-02-03T18:49:39;10.00;99.90
11280;DHT22;5696;50.928;6.960;2023-02-03T18:52:05;10.00;99.90
11280;DHT22;5696;50.928;6.960;2023-02-03T18:54:31;10.00;99.90
11280;DHT22;5696;50.928;6.960;2023-02-03T18:56:57;10.00;99.90
11280;DHT22;5696;50.928;6.960;2023-02-03T18:59:23;10.00;99.90
11280;DHT22;5696;50.928;6.960;2023-02-03T19:01:50;10.00;99.90
11280;DHT22;5696;50.928;6.960;2023-02-03T19:04:16;10.00;99.90
11280;DHT22;5696;50.928;6.960;2023-02-03T19:06:42;10.00;99.90
11280;DHT22;5696;50.928;6.960;2023-02-03T19:09:11;10.00;99.90
11280;DHT22;5696;50.928;6.960;2023-02-03T19:11:37;10.00;99.90
11280;DHT22;5696;50.928;6.960;2023-02-03T19:14:03;10.00;99.90
11280;DHT22;5696;50.928;6.960;2023-02-03T19:16:29;10.00;99.90
11280;DHT22;5696;50.928;6.960;2023-02-03T19:18:54;10.00;99.90
11280;DHT22;5696;50.928;6.960;2023-02-03T19:21:20;10.00;99.90
11280;DHT22;5696;50.928;6.960;2023-02-03T19:23:46;10.00;99.90
11280;DHT22;5696;50.928;6.960;2023-02-03T19:26:12;9.90;99.90
11280;DHT22;5696;50.928;6.960;2023-02-03T19:28:38;9.80;99.90
11280;DHT22;5696;50.928;6.960;2023-02-03T19:31:06;9.80;99.90
11280;DHT22;5696;50.928;6.960;2023-02-03T19:33:32;9.90;99.90
11280;DHT22;5696;50.928;6.960;2023-02-03T19:35:57;9.90;99.90
11280;DHT22;5696;50.928;6.960;2023-02-03T19:38:23;10.00;99.90
11280;DHT22;5696;50.928;6.960;2023-02-03T19:40:49;10.00;99.90
11280;DHT22;5696;50.928;6.960;2023-02-03T19:43:14;10.10;99.90
11280;DHT22;5696;50.928;6.960;2023-02-03T19:45:40;10.10;99.90
11280;DHT22;5696;50.928;6.960;2023-02-03T19:48:06;10.10;99.90
11280;DHT22;5696;50.928;6.960;2023-02-03T19:50:32;10.00;99.90
11280;DHT22;5696;50.928;6.960;2023-02-03T19:52:57;10.10;99.90
11280;DHT22;5696;50.928;6.960;2023-02-03T19:55:23;10.00;99.90
11280;DHT22;5696;50.928;6.960;2023-02-03T19:57:57;10.00;99.90
11280;DHT22;5696;50.928;6.960;2023-02-03T20:00:27;10.00;99.90
11280;DHT22;5696;50.928;6.960;2023-02-03T20:02:53;10.00;99.90
11280;DHT22;5696;50.928;6.960;2023-02-03T20:05:19;9.90;99.90
11280;DHT22;5696;50.928;6.960;2023-02-03T20:07:45;9.90;99.90
11280;DHT22;5696;50.928;6.960;2023-02-03T20:10:10;10.00;99.90
11280;DHT22;5696;50.928;6.960;2023-02-03T20:12:38;10.00;99.90
11280;DHT22;5696;50.928;6.960;2023-02-03T20:15:04;10.00;99.90
11280;DHT22;5696;50.928;6.960;2023-02-03T20:17:31;9.90;99.90
11280;DHT22;5696;50.928;6.960;2023-02-03T20:19:56;9.90;99.90
11280;DHT22;5696;50.928;6.960;2023-02-03T20:22:22;9.90;99.90
11280;DHT22;5696;50.928;6.960;2023-02-03T20:24:48;9.90;99.90
11280;DHT22;5696;50.928;6.960;2023-02-03T20:27:13;9.90;99.90
11280;DHT22;5696;50.928;6.960;2023-02-03T20:29:39;9.90;99.90
11280;DHT22;5696;50.928;6.960;2023-02-03T20:32:05;9.90;99.90
11280;DHT22;5696;50.928;6.960;2023-02-03T20:34:32;10.00;99.90
11280;DHT22;5696;50.928;6.960;2023-02-03T20:36:57;10.00;99.90
11280;DHT22;5696;50.928;6.960;2023-02-03T20:39:25;10.00;99.90
11280;DHT22;5696;50.928;6.960;2023-02-03T20:41:52;10.00;99.90
11280;DHT22;5696;50.928;6.960;2023-02-03T20:44:17;10.00;99.90
11280;DHT22;5696;50.928;6.960;2023-02-03T20:46:43;9.90;99.90
11280;DHT22;5696;50.928;6.960;2023-02-03T20:49:14;9.90;99.90
11280;DHT22;5696;50.928;6.960;2023-02-03T20:51:40;10.00;99.90
11280;DHT22;5696;50.928;6.960;2023-02-03T20:54:19;9.90;99.90
11280;DHT22;5696;50.928;6.960;2023-02-03T20:56:46;9.80;99.90
11280;DHT22;5696;50.928;6.960;2023-02-03T20:59:15;9.90;99.90
11280;DHT22;5696;50.928;6.960;2023-02-03T21:01:41;9.90;99.90
11280;DHT22;5696;50.928;6.960;2023-02-03T21:04:15;10.00;99.90
11280;DHT22;5696;50.928;6.960;2023-02-03T21:07:09;10.00;99.90
11280;DHT22;5696;50.928;6.960;2023-02-03T21:09:37;10.00;99.90
11280;DHT22;5696;50.928;6.960;2023-02-03T21:12:10;10.00;99.90
11280;DHT22;5696;50.928;6.960;2023-02-03T21:14:40;9.90;99.90
11280;DHT22;5696;50.928;6.960;2023-02-03T21:17:21;9.90;99.90
11280;DHT22;5696;50.928;6.960;2023-02-03T21:19:48;9.90;99.90
11280;DHT22;5696;50.928;6.960;2023-02-03T21:22:25;9.90;99.90
11280;DHT22;5696;50.928;6.960;2023-02-03T21:24:59;10.00;99.90
11280;DHT22;5696;50.928;6.960;2023-02-03T21:27:32;10.00;99.90
11280;DHT22;5696;50.928;6.960;2023-02-03T21:30:20;10.00;99.90
11280;DHT22;5696;50.928;6.960;2023-02-03T21:32:47;10.10;99.90
11280;DHT22;5696;50.928;6.960;2023-02-03T21:35:34;10.00;99.90
11280;DHT22;5696;50.928;6.960;2023-02-03T21:40:51;9.90;99.90
11280;DHT22;5696;50.928;6.960;2023-02-03T21:43:17;10.00;99.90
11280;DHT22;5696;50.928;6.960;2023-02-03T21:45:43;10.00;99.90
11280;DHT22;5696;50.928;6.960;2023-02-03T21:48:23;10.00;99.90
11280;DHT22;5696;50.928;6.960;2023-02-03T21:50:50;9.90;99.90
11280;DHT22;5696;50.928;6.960;2023-02-03T21:53:31;9.80;99.90
11280;DHT22;5696;50.928;6.960;2023-02-03T21:56:18;9.90;99.90
11280;DHT22;5696;50.928;6.960;2023-02-03T21:58:45;9.90;99.90
11280;DHT22;5696;50.928;6.960;2023-02-03T22:01:15;9.90;99.90
11280;DHT22;5696;50.928;6.960;2023-02-03T22:03:53;9.80;99.90
11280;DHT22;5696;50.928;6.960;2023-02-03T22:06:22;9.80;99.90
11280;DHT22;5696;50.928;6.960;2023-02-03T22:08:51;9.80;99.90
11280;DHT22;5696;50.928;6.960;2023-02-03T22:11:18;9.80;99.90
11280;DHT22;5696;50.928;6.960;2023-02-03T22:13:44;9.80;99.90
11280;DHT22;5696;50.928;6.960;2023-02-03T22:16:10;9.70;99.90
11280;DHT22;5696;50.928;6.960;2023-02-03T22:18:39;9.80;99.90
11280;DHT22;5696;50.928;6.960;2023-02-03T22:21:08;9.80;99.90
11280;DHT22;5696;50.928;6.960;2023-02-03T22:23:34;9.70;99.90
11280;DHT22;5696;50.928;6.960;2023-02-03T22:26:00;9.70;99.90
11280;DHT22;5696;50.928;6.960;2023-02-03T22:28:25;9.70;99.90
11280;DHT22;5696;50.928;6.960;2023-02-03T22:30:51;9.70;99.90
11280;DHT22;5696;50.928;6.960;2023-02-03T22:33:17;9.80;99.90
11280;DHT22;5696;50.928;6.960;2023-02-03T22:35:43;9.80;99.90
11280;DHT22;5696;50.928;6.960;2023-02-03T22:38:09;9.70;99.90
11280;DHT22;5696;50.928;6.960;2023-02-03T22:40:35;9.60;99.90
11280;DHT22;5696;50.928;6.960;2023-02-03T22:43:01;9.60;99.90
11280;DHT22;5696;50.928;6.960;2023-02-03T22:45:27;9.70;99.90
11280;DHT22;5696;50.928;6.960;2023-02-03T22:47:53;9.70;99.90
11280;DHT22;5696;50.928;6.960;2023-02-03T22:50:20;9.70;99.90
11280;DHT22;5696;50.928;6.960;2023-02-03T22:52:46;9.80;99.90
11280;DHT22;5696;50.928;6.960;2023-02-03T22:55:12;9.80;99.90
11280;DHT22;5696;50.928;6.960;2023-02-03T22:57:37;9.70;99.90
11280;DHT22;5696;50.928;6.960;2023-02-03T23:00:08;9.70;99.90
11280;DHT22;5696;50.928;6.960;2023-02-03T23:02:40;9.70;99.90
11280;DHT22;5696;50.928;6.960;2023-02-03T23:05:07;9.70;99.90
11280;DHT22;5696;50.928;6.960;2023-02-03T23:07:34;9.70;99.90
11280;DHT22;5696;50.928;6.960;2023-02-03T23:10:02;9.70;99.90
11280;DHT22;5696;50.928;6.960;2023-02-03T23:12:28;9.70;99.90
11280;DHT22;5696;50.928;6.960;2023-02-03T23:14:54;9.70;99.90
11280;DHT22;5696;50.928;6.960;2023-02-03T23:17:19;9.70;99.90
11280;DHT22;5696;50.928;6.960;2023-02-03T23:19:45;9.70;99.90
11280;DHT22;5696;50.928;6.960;2023-02-03T23:22:11;9.80;99.90
11280;DHT22;5696;50.928;6.960;2023-02-03T23:24:37;9.70;99.90
11280;DHT22;5696;50.928;6.960;2023-02-03T23:27:02;9.60;99.90
11280;DHT22;5696;50.928;6.960;2023-02-03T23:29:28;9.60;99.90
11280;DHT22;5696;50.928;6.960;2023-02-03T23:31:54;9.70;99.90
11280;DHT22;5696;50.928;6.960;2023-02-03T23:34:20;9.70;99.90
11280;DHT22;5696;50.928;6.960;2023-02-03T23:37:04;9.60;99.90
11280;DHT22;5696;50.928;6.960;2023-02-03T23:39:32;9.70;99.90
11280;DHT22;5696;50.928;6.960;2023-02-03T23:41:58;9.70;99.90
11280;DHT22;5696;50.928;6.960;2023-02-03T23:44:24;9.70;99.90
11280;DHT22;5696;50.928;6.960;2023-02-03T23:46:49;9.60;99.90
11280;DHT22;5696;50.928;6.960;2023-02-03T23:49:15;9.60;99.90
11280;DHT22;5696;50.928;6.960;2023-02-03T23:51:41;9.50;99.90
11280;DHT22;5696;50.928;6.960;2023-02-03T23:54:06;9.50;99.90
11280;DHT22;5696;50.928;6.960;2023-02-03T23:56:32;9.50;99.90
11280;DHT22;5696;50.928;6.960;2023-02-03T23:58:58;9.40;99.90
